Time;durP1;ratioP1;P1;durP2;ratioP2;P2;SDS_P1;SDS_P2;PMS_P1;PMS_P2;Temp;Humidity;BMP_temperature;BMP_pressure;BME280_temperature;BME280_humidity;BME280_pressure;Samples;Min_cycle;Max_cycle;Signal;HPM_P1;HPM_P2
2023/10/22 05:20:30;;;;;;;3.72;1.75;;;;;;;;;;5042940;28;20396;-86
2023/10/22 05:22:55;;;;;;;3.58;2.42;;;;;;;;;;5049221;28;20134;-85
2023/10/22 05:25:20;;;;;;;3.75;1.95;;;;;;;;;;5045518;28;20028;-82
2023/10/22 05:27:46;;;;;;;10.88;2.90;;;;;;;;;;5050774;28;20064;-84
2023/10/22 05:30:13;;;;;;;8.23;2.55;;;;;;;;;;5047363;28;20055;-83
2023/10/22 05:32:38;;;;;;;16.30;1.80;;;;;;;;;;5046860;28;20029;-80
2023/10/22 05:35:04;;;;;;;5.72;1.48;;;;;;;;;;5045590;28;20083;-79
2023/10/22 05:37:29;;;;;;;3.88;1.05;;;;;;;;;;5048401;28;20523;-79
2023/10/22 05:39:58;;;;;;;1.10;0.82;;;;;;;;;;5048479;28;20024;-77
2023/10/22 05:42:24;;;;;;;0.82;0.68;;;;;;;;;;5046170;28;20052;-79
2023/10/22 05:44:49;;;;;;;2.65;1.67;;;;;;;;;;5045325;28;20103;-78
2023/10/22 05:47:15;;;;;;;6.75;1.95;;;;;;;;;;5051426;28;20112;-79
2023/10/22 05:49:40;;;;;;;2.97;1.55;;;;;;;;;;5047455;28;20036;-82
2023/10/22 05:52:06;;;;;;;3.60;1.48;;;;;;;;;;5053101;28;20067;-83
2023/10/22 05:54:31;;;;;;;2.83;0.82;;;;;;;;;;5050825;28;20056;-85
2023/10/22 05:56:57;;;;;;;4.78;1.38;;;;;;;;;;5051089;28;20037;-86
2023/10/22 05:59:22;;;;;;;2.05;0.60;;;;;;;;;;5048316;28;20025;-85
2023/10/22 06:01:48;;;;;;;1.55;0.75;;;;;;;;;;5060615;28;20020;-84
2023/10/22 06:04:13;;;;;;;2.40;0.90;;;;;;;;;;5057044;28;20048;-86
2023/10/22 06:06:38;;;;;;;4.28;2.10;;;;;;;;;;5051356;28;20500;-86
2023/10/22 06:09:04;;;;;;;0.65;0.60;;;;;;;;;;5051688;28;20029;-86
2023/10/22 06:11:29;;;;;;;2.15;1.02;;;;;;;;;;5048147;28;20151;-85
2023/10/22 06:13:56;;;;;;;4.15;1.20;;;;;;;;;;5051807;28;20025;-89
2023/10/22 06:16:23;;;;;;;2.22;1.63;;;;;;;;;;5050410;28;20040;-85
2023/10/22 06:18:48;;;;;;;2.38;1.00;;;;;;;;;;5051225;28;20098;-87
2023/10/22 06:21:15;;;;;;;1.23;0.80;;;;;;;;;;5052450;28;20108;-86
2023/10/22 06:23:41;;;;;;;1.75;0.82;;;;;;;;;;5052382;28;20094;-87
2023/10/22 06:26:11;;;;;;;5.03;1.40;;;;;;;;;;5052241;28;20105;-85
2023/10/22 06:28:40;;;;;;;2.67;1.73;;;;;;;;;;5048711;28;20021;-84
2023/10/22 06:31:10;;;;;;;1.43;1.13;;;;;;;;;;5077589;28;20045;-86
2023/10/22 06:33:37;;;;;;;4.50;1.60;;;;;;;;;;5037714;28;20083;-88
2023/10/22 06:36:15;;;;;;;2.35;1.13;;;;;;;;;;5046240;28;20028;-87
2023/10/22 06:38:42;;;;;;;1.83;1.23;;;;;;;;;;5037064;28;20023;-86
2023/10/22 06:41:13;;;;;;;2.67;1.50;;;;;;;;;;5040456;28;20477;-84
2023/10/22 06:43:39;;;;;;;1.38;0.93;;;;;;;;;;5037083;28;20029;-87
2023/10/22 06:46:04;;;;;;;3.17;1.25;;;;;;;;;;5039840;28;20470;-87
2023/10/22 06:48:30;;;;;;;1.35;1.20;;;;;;;;;;5039538;28;20031;-86
2023/10/22 06:50:55;;;;;;;1.27;1.05;;;;;;;;;;5033635;28;20029;-86
2023/10/22 06:53:21;;;;;;;1.42;0.77;;;;;;;;;;5043979;28;20032;-89
2023/10/22 06:55:46;;;;;;;1.67;0.80;;;;;;;;;;5037012;28;20029;-85
2023/10/22 06:58:12;;;;;;;0.80;0.73;;;;;;;;;;5036951;28;20029;-84
2023/10/22 07:00:37;;;;;;;4.28;1.38;;;;;;;;;;5040409;28;20032;-88
2023/10/22 07:03:02;;;;;;;6.20;1.98;;;;;;;;;;5035359;28;20045;-86
2023/10/22 07:05:28;;;;;;;6.65;1.77;;;;;;;;;;5041508;28;20048;-86
2023/10/22 07:07:54;;;;;;;5.65;1.95;;;;;;;;;;5035024;28;20071;-87
2023/10/22 07:10:19;;;;;;;2.85;1.10;;;;;;;;;;5039809;28;20029;-86
2023/10/22 07:12:45;;;;;;;6.90;1.55;;;;;;;;;;5045964;28;20111;-87
2023/10/22 07:15:12;;;;;;;3.88;1.75;;;;;;;;;;5038656;28;20029;-88
2023/10/22 07:17:38;;;;;;;1.58;1.15;;;;;;;;;;5038049;28;20031;-86
2023/10/22 07:20:05;;;;;;;3.55;1.17;;;;;;;;;;5043029;28;20049;-83
2023/10/22 07:22:31;;;;;;;3.40;1.40;;;;;;;;;;5073628;28;20086;-84
2023/10/22 07:24:56;;;;;;;1.40;1.17;;;;;;;;;;5036967;28;20059;-83
2023/10/22 07:27:22;;;;;;;1.77;1.00;;;;;;;;;;5037960;28;20034;-82
2023/10/22 07:29:47;;;;;;;4.55;1.77;;;;;;;;;;5047638;28;20104;-82
2023/10/22 07:32:13;;;;;;;1.85;1.42;;;;;;;;;;5046984;28;20445;-84
2023/10/22 07:34:38;;;;;;;2.42;1.77;;;;;;;;;;5038471;28;20033;-83
2023/10/22 07:37:03;;;;;;;2.22;1.48;;;;;;;;;;5031712;28;20065;-82
2023/10/22 07:39:29;;;;;;;3.65;1.70;;;;;;;;;;5031930;28;20029;-82
2023/10/22 07:41:58;;;;;;;3.15;1.60;;;;;;;;;;5034518;28;20473;-82
2023/10/22 07:44:23;;;;;;;1.45;1.25;;;;;;;;;;5032379;28;20029;-82
2023/10/22 07:46:49;;;;;;;11.60;2.45;;;;;;;;;;5038986;28;20043;-84
2023/10/22 07:49:14;;;;;;;2.85;1.70;;;;;;;;;;5041446;28;20025;-83
2023/10/22 07:51:40;;;;;;;3.13;2.10;;;;;;;;;;5029261;28;20057;-84
2023/10/22 07:54:05;;;;;;;3.65;2.22;;;;;;;;;;5034848;28;20033;-84
2023/10/22 07:56:31;;;;;;;8.10;2.45;;;;;;;;;;5029387;28;20091;-85
2023/10/22 07:58:56;;;;;;;3.05;2.00;;;;;;;;;;5032625;28;20027;-82
2023/10/22 08:01:23;;;;;;;4.95;2.33;;;;;;;;;;5030154;28;20563;-82
2023/10/22 08:03:50;;;;;;;2.08;1.25;;;;;;;;;;5030306;28;20109;-83
2023/10/22 08:06:16;;;;;;;6.18;2.42;;;;;;;;;;5029323;28;20116;-82
2023/10/22 08:08:41;;;;;;;7.75;3.25;;;;;;;;;;5039028;28;20072;-83
2023/10/22 08:11:07;;;;;;;3.85;1.95;;;;;;;;;;5030891;28;20056;-83
2023/10/22 08:13:32;;;;;;;4.13;2.33;;;;;;;;;;5031580;28;20047;-83
2023/10/22 08:16:02;;;;;;;3.63;1.63;;;;;;;;;;5032809;28;20020;-83
2023/10/22 08:18:27;;;;;;;10.43;1.85;;;;;;;;;;5043231;28;20033;-82
2023/10/22 08:20:52;;;;;;;15.07;4.00;;;;;;;;;;5036505;28;20485;-83
2023/10/22 08:23:18;;;;;;;2.33;1.88;;;;;;;;;;5033273;28;20064;-83
2023/10/22 08:25:53;;;;;;;3.92;2.13;;;;;;;;;;5030208;28;20025;-83
2023/10/22 08:28:19;;;;;;;5.43;2.28;;;;;;;;;;5028432;28;20037;-82
2023/10/22 08:30:48;;;;;;;4.57;1.55;;;;;;;;;;5029423;28;20029;-83
2023/10/22 08:33:14;;;;;;;3.87;2.17;;;;;;;;;;5030765;28;20511;-82
2023/10/22 08:35:40;;;;;;;2.38;1.65;;;;;;;;;;5030048;28;20057;-82
2023/10/22 08:38:06;;;;;;;2.38;1.77;;;;;;;;;;5030395;28;20397;-83
2023/10/22 08:40:41;;;;;;;1.63;1.42;;;;;;;;;;5031402;28;20017;-82
2023/10/22 08:43:15;;;;;;;2.55;1.17;;;;;;;;;;5031784;28;20115;-82
2023/10/22 08:45:40;;;;;;;6.10;2.33;;;;;;;;;;5044412;28;20079;-82
2023/10/22 08:48:06;;;;;;;2.75;1.70;;;;;;;;;;5031105;28;20037;-83
2023/10/22 08:50:33;;;;;;;5.07;1.05;;;;;;;;;;5039180;28;20032;-82
2023/10/22 08:52:58;;;;;;;1.55;0.82;;;;;;;;;;5032955;28;20587;-83
2023/10/22 08:55:28;;;;;;;2.88;1.10;;;;;;;;;;5034231;28;20140;-83
2023/10/22 08:57:53;;;;;;;5.15;1.15;;;;;;;;;;5029070;28;20037;-83
2023/10/22 09:00:21;;;;;;;4.55;0.93;;;;;;;;;;5035652;28;20103;-83
2023/10/22 09:02:48;;;;;;;2.63;0.50;;;;;;;;;;5031617;28;20034;-82
2023/10/22 09:05:14;;;;;;;1.42;1.15;;;;;;;;;;5039633;28;20021;-83
2023/10/22 09:08:09;;;;;;;0.57;0.40;;;;;;;;;;5043966;28;20033;-85
2023/10/22 09:10:36;;;;;;;0.75;0.70;;;;;;;;;;5015930;28;20037;-83
2023/10/22 09:13:12;;;;;;;2.08;0.65;;;;;;;;;;5034144;28;20458;-82
2023/10/22 09:15:47;;;;;;;1.30;1.17;;;;;;;;;;5039114;28;20492;-84
2023/10/22 09:18:14;;;;;;;1.33;0.70;;;;;;;;;;5031931;28;20466;-84
2023/10/22 09:20:41;;;;;;;4.20;0.98;;;;;;;;;;5033289;28;20032;-85
2023/10/22 09:23:22;;;;;;;3.03;1.17;;;;;;;;;;5032792;28;20029;-83
2023/10/22 09:25:52;;;;;;;3.65;1.40;;;;;;;;;;5029378;28;20393;-82
2023/10/22 09:28:20;;;;;;;1.45;0.95;;;;;;;;;;5032032;28;20036;-84
2023/10/22 09:30:47;;;;;;;1.10;0.73;;;;;;;;;;5031869;28;20048;-83
2023/10/22 09:33:16;;;;;;;2.42;0.93;;;;;;;;;;5040016;28;20506;-83
2023/10/22 09:35:58;;;;;;;1.83;1.25;;;;;;;;;;5032817;28;20473;-82
2023/10/22 09:38:43;;;;;;;1.30;0.95;;;;;;;;;;5037414;28;20084;-83
2023/10/22 09:41:29;;;;;;;5.13;1.17;;;;;;;;;;5036048;28;20053;-84
2023/10/22 09:43:58;;;;;;;3.15;1.10;;;;;;;;;;5039141;28;20044;-83
2023/10/22 09:46:33;;;;;;;2.65;1.25;;;;;;;;;;5028427;28;20017;-82
2023/10/22 09:49:03;;;;;;;4.97;1.15;;;;;;;;;;5043736;28;20078;-83
2023/10/22 09:51:36;;;;;;;2.10;1.40;;;;;;;;;;5033556;28;20389;-82
2023/10/22 09:54:05;;;;;;;5.22;1.92;;;;;;;;;;5026217;28;20025;-83
2023/10/22 09:56:32;;;;;;;6.05;1.50;;;;;;;;;;5035346;28;20361;-84
2023/10/22 09:59:10;;;;;;;0.70;0.70;;;;;;;;;;5036504;28;20029;-82
2023/10/22 10:01:37;;;;;;;1.52;0.90;;;;;;;;;;5034380;28;20025;-82
2023/10/22 10:04:05;;;;;;;1.33;0.90;;;;;;;;;;5037684;28;20051;-81
2023/10/22 10:06:31;;;;;;;1.90;1.35;;;;;;;;;;5034131;28;20041;-84
2023/10/22 10:09:03;;;;;;;2.75;1.65;;;;;;;;;;5027056;28;20025;-82
2023/10/22 10:11:28;;;;;;;4.32;1.67;;;;;;;;;;5043541;28;20127;-82
2023/10/22 10:13:58;;;;;;;3.33;1.58;;;;;;;;;;5033820;28;20480;-83
2023/10/22 10:16:24;;;;;;;3.55;1.80;;;;;;;;;;5035619;28;20037;-83
2023/10/22 10:19:07;;;;;;;7.13;1.20;;;;;;;;;;5036393;28;20125;-83
2023/10/22 10:21:39;;;;;;;3.40;1.35;;;;;;;;;;5034307;28;20065;-84
2023/10/22 10:24:24;;;;;;;1.63;1.02;;;;;;;;;;5039796;28;20038;-84
2023/10/22 10:26:58;;;;;;;3.15;1.00;;;;;;;;;;5028791;28;20116;-84
2023/10/22 10:29:29;;;;;;;5.50;1.00;;;;;;;;;;5045885;28;20044;-82
2023/10/22 10:32:15;;;;;;;9.02;1.25;;;;;;;;;;5036907;28;20060;-83
2023/10/22 10:34:50;;;;;;;4.45;1.27;;;;;;;;;;5032584;28;20029;-82
2023/10/22 10:37:18;;;;;;;2.85;1.38;;;;;;;;;;5046151;28;20037;-84
2023/10/22 10:39:45;;;;;;;3.80;1.13;;;;;;;;;;5036819;28;20024;-83
2023/10/22 10:42:36;;;;;;;11.18;1.67;;;;;;;;;;5033454;28;20022;-82
2023/10/22 10:45:04;;;;;;;1.75;1.10;;;;;;;;;;5039251;28;20036;-80
2023/10/22 10:47:31;;;;;;;3.03;0.77;;;;;;;;;;5038182;28;20026;-82
2023/10/22 10:50:03;;;;;;;5.35;2.78;;;;;;;;;;5032917;28;20113;-82
2023/10/22 10:52:49;;;;;;;1.75;0.60;;;;;;;;;;5040979;28;20044;-82
2023/10/22 10:55:15;;;;;;;2.97;0.80;;;;;;;;;;5027215;28;20486;-83
2023/10/22 10:57:45;;;;;;;3.50;1.35;;;;;;;;;;5044261;28;20025;-82
2023/10/22 11:00:21;;;;;;;1.20;1.00;;;;;;;;;;5047684;28;20025;-81
2023/10/22 11:02:48;;;;;;;1.60;0.77;;;;;;;;;;5033452;28;20017;-82
2023/10/22 11:05:14;;;;;;;3.40;1.27;;;;;;;;;;5039848;28;20026;-81
2023/10/22 11:07:43;;;;;;;2.53;1.65;;;;;;;;;;5038332;28;20420;-85
2023/10/22 11:10:16;;;;;;;1.63;0.70;;;;;;;;;;5044074;28;20088;-82
2023/10/22 11:12:44;;;;;;;5.25;1.35;;;;;;;;;;5040253;28;20116;-81
2023/10/22 11:15:12;;;;;;;1.52;1.05;;;;;;;;;;5033899;28;20041;-83
2023/10/22 11:17:41;;;;;;;1.90;1.38;;;;;;;;;;5056863;28;20028;-82
2023/10/22 11:20:08;;;;;;;2.35;0.75;;;;;;;;;;5035667;28;20122;-83
2023/10/22 11:22:38;;;;;;;3.03;1.38;;;;;;;;;;5039638;28;20487;-82
2023/10/22 11:25:07;;;;;;;2.83;1.17;;;;;;;;;;5038276;28;20037;-82
2023/10/22 11:27:38;;;;;;;3.67;0.98;;;;;;;;;;5041974;28;20032;-82
2023/10/22 11:30:05;;;;;;;3.67;1.02;;;;;;;;;;5031898;28;20034;-82
2023/10/22 11:32:31;;;;;;;3.80;1.17;;;;;;;;;;5046770;28;20029;-83
2023/10/22 11:34:56;;;;;;;11.00;1.30;;;;;;;;;;5040971;28;20036;-82
2023/10/22 11:37:45;;;;;;;6.88;1.17;;;;;;;;;;5039464;28;20030;-82
2023/10/22 11:40:29;;;;;;;9.05;1.45;;;;;;;;;;5032766;28;20021;-80
2023/10/22 11:43:07;;;;;;;3.72;1.13;;;;;;;;;;5031135;28;20058;-81
2023/10/22 11:45:36;;;;;;;8.80;1.07;;;;;;;;;;5041658;28;20088;-84
2023/10/22 11:48:15;;;;;;;3.63;2.25;;;;;;;;;;5037284;28;20029;-85
2023/10/22 11:50:51;;;;;;;;;;;;;;;;;;5036918;28;20497;-86
2023/10/22 11:53:17;;;;;;;4.25;2.08;;;;;;;;;;5038257;28;19924;-83
2023/10/22 11:55:45;;;;;;;0.98;0.68;;;;;;;;;;5036827;28;20033;-82
2023/10/22 11:58:22;;;;;;;2.85;0.88;;;;;;;;;;5035885;28;20115;-84
2023/10/22 12:00:48;;;;;;;2.63;1.10;;;;;;;;;;5036822;28;20492;-84
2023/10/22 12:03:14;;;;;;;1.50;0.63;;;;;;;;;;5033075;28;20020;-84
2023/10/22 12:05:40;;;;;;;2.30;0.95;;;;;;;;;;5039722;28;20036;-86
2023/10/22 12:08:05;;;;;;;3.33;1.10;;;;;;;;;;5037590;28;20750;-83
2023/10/22 12:10:31;;;;;;;11.98;1.60;;;;;;;;;;5038823;28;20452;-83
2023/10/22 12:12:56;;;;;;;3.30;1.52;;;;;;;;;;5036972;28;20037;-83
2023/10/22 12:15:22;;;;;;;1.27;0.77;;;;;;;;;;5039299;28;20029;-83
2023/10/22 12:17:47;;;;;;;1.77;1.00;;;;;;;;;;5043180;28;20443;-85
2023/10/22 12:20:13;;;;;;;2.00;1.27;;;;;;;;;;5030510;28;20064;-83
2023/10/22 12:22:39;;;;;;;3.33;1.60;;;;;;;;;;5040407;28;20064;-83
2023/10/22 12:25:04;;;;;;;1.40;1.00;;;;;;;;;;5041625;28;20359;-84
2023/10/22 12:27:31;;;;;;;6.35;1.85;;;;;;;;;;5041480;28;20115;-84
2023/10/22 12:29:57;;;;;;;5.18;1.30;;;;;;;;;;5029601;28;20041;-83
2023/10/22 12:32:23;;;;;;;2.35;1.20;;;;;;;;;;5030139;28;20473;-84
2023/10/22 12:34:48;;;;;;;6.85;1.58;;;;;;;;;;5033018;28;20061;-83
2023/10/22 12:37:13;;;;;;;3.35;1.13;;;;;;;;;;5032789;28;20394;-84
2023/10/22 12:39:41;;;;;;;5.45;1.05;;;;;;;;;;5039765;28;20070;-83
2023/10/22 12:42:06;;;;;;;2.92;1.17;;;;;;;;;;5045870;28;20071;-83
2023/10/22 12:44:32;;;;;;;4.18;1.67;;;;;;;;;;5037514;28;20029;-85
2023/10/22 12:46:57;;;;;;;2.00;1.17;;;;;;;;;;5038213;28;20033;-82
2023/10/22 12:49:23;;;;;;;1.67;1.08;;;;;;;;;;5036499;28;20076;-83
2023/10/22 12:51:51;;;;;;;3.05;1.55;;;;;;;;;;5034947;28;20044;-84
2023/10/22 12:54:17;;;;;;;11.50;1.10;;;;;;;;;;5031302;28;20076;-83
2023/10/22 12:56:42;;;;;;;2.67;1.42;;;;;;;;;;5033971;28;20025;-83
2023/10/22 12:59:08;;;;;;;4.18;1.00;;;;;;;;;;5036431;28;20021;-82
2023/10/22 13:01:34;;;;;;;2.05;0.73;;;;;;;;;;5034263;28;20527;-82
2023/10/22 13:04:00;;;;;;;3.55;1.48;;;;;;;;;;5046609;28;20036;-83
2023/10/22 13:06:25;;;;;;;6.53;1.70;;;;;;;;;;5034146;28;20022;-83
2023/10/22 13:08:51;;;;;;;2.33;1.13;;;;;;;;;;5037807;28;20025;-84
2023/10/22 13:11:17;;;;;;;6.85;2.55;;;;;;;;;;5042059;28;20033;-82
2023/10/22 13:13:44;;;;;;;3.72;1.30;;;;;;;;;;5038616;28;20029;-84
2023/10/22 13:16:10;;;;;;;10.93;1.70;;;;;;;;;;5033417;28;20021;-83
2023/10/22 13:18:35;;;;;;;3.25;1.35;;;;;;;;;;5033663;28;20384;-82
2023/10/22 13:21:01;;;;;;;8.00;1.75;;;;;;;;;;5033312;28;20029;-83
2023/10/22 13:23:26;;;;;;;12.07;1.73;;;;;;;;;;5031978;28;20039;-84
2023/10/22 13:25:51;;;;;;;8.27;1.45;;;;;;;;;;5033193;28;20031;-83
2023/10/22 13:28:17;;;;;;;3.55;1.00;;;;;;;;;;5034696;28;21045;-84
2023/10/22 13:30:45;;;;;;;7.88;2.30;;;;;;;;;;5034684;28;20063;-84
2023/10/22 13:33:10;;;;;;;3.92;1.13;;;;;;;;;;5036729;28;20032;-82
2023/10/22 13:35:36;;;;;;;3.17;1.10;;;;;;;;;;5036922;28;20406;-83
2023/10/22 13:38:01;;;;;;;3.33;1.50;;;;;;;;;;5032201;28;20484;-83
2023/10/22 13:40:26;;;;;;;3.72;1.33;;;;;;;;;;5029722;28;20118;-82
2023/10/22 13:42:52;;;;;;;7.50;2.53;;;;;;;;;;5034737;28;20032;-84
2023/10/22 13:45:17;;;;;;;6.15;1.58;;;;;;;;;;5040499;28;20461;-84
2023/10/22 13:47:44;;;;;;;6.63;1.67;;;;;;;;;;5033994;28;20021;-82
2023/10/22 13:50:11;;;;;;;1.85;1.50;;;;;;;;;;5035019;28;20028;-84
2023/10/22 13:52:40;;;;;;;6.90;1.25;;;;;;;;;;5034883;28;20044;-83
2023/10/22 13:55:05;;;;;;;8.95;1.40;;;;;;;;;;5035718;28;20026;-83
2023/10/22 13:57:31;;;;;;;3.95;1.70;;;;;;;;;;5037237;28;20025;-83
2023/10/22 13:59:56;;;;;;;3.35;1.67;;;;;;;;;;5033527;28;20359;-83
2023/10/22 14:02:22;;;;;;;3.05;1.50;;;;;;;;;;5034279;28;20532;-84
2023/10/22 14:04:47;;;;;;;8.75;1.95;;;;;;;;;;5069069;28;20059;-84
2023/10/22 14:07:16;;;;;;;4.95;2.38;;;;;;;;;;5033418;28;20504;-83
2023/10/22 14:09:41;;;;;;;3.25;1.92;;;;;;;;;;5033209;28;20029;-84
2023/10/22 14:12:07;;;;;;;2.78;1.27;;;;;;;;;;5035819;28;20026;-83
2023/10/22 14:14:37;;;;;;;3.38;1.40;;;;;;;;;;5034135;28;20021;-83
2023/10/22 14:17:02;;;;;;;;;;;;;;;;;;5035693;28;20028;-84
2023/10/22 14:19:28;;;;;;;4.45;1.67;;;;;;;;;;5038235;28;19916;-83
2023/10/22 14:21:53;;;;;;;7.47;2.22;;;;;;;;;;5039918;28;20048;-83
2023/10/22 14:24:18;;;;;;;2.50;1.33;;;;;;;;;;5034775;28;20557;-84
2023/10/22 14:26:44;;;;;;;2.90;1.63;;;;;;;;;;5037793;28;20032;-84
2023/10/22 14:29:09;;;;;;;9.65;3.33;;;;;;;;;;5035280;28;20035;-84
2023/10/22 14:31:35;;;;;;;8.68;2.80;;;;;;;;;;5039771;28;20040;-83
2023/10/22 14:34:00;;;;;;;3.28;1.50;;;;;;;;;;5034848;28;20032;-83
2023/10/22 14:36:25;;;;;;;5.20;1.70;;;;;;;;;;5034119;28;20060;-84
2023/10/22 14:38:51;;;;;;;8.90;1.35;;;;;;;;;;5044863;28;20052;-82
2023/10/22 14:41:17;;;;;;;2.05;1.20;;;;;;;;;;5043835;28;20483;-82
2023/10/22 14:43:43;;;;;;;2.90;1.83;;;;;;;;;;5078994;28;20021;-82
2023/10/22 14:46:09;;;;;;;1.27;0.73;;;;;;;;;;5040904;28;20035;-82
2023/10/22 14:48:37;;;;;;;2.95;0.90;;;;;;;;;;5050498;28;20053;-84
2023/10/22 14:51:03;;;;;;;4.95;0.82;;;;;;;;;;5049539;28;20534;-82
2023/10/22 14:53:33;;;;;;;7.57;2.55;;;;;;;;;;5034470;28;20029;-83
2023/10/22 14:55:59;;;;;;;2.25;0.73;;;;;;;;;;5036193;28;20504;-83
2023/10/22 14:58:25;;;;;;;4.03;1.20;;;;;;;;;;5037170;28;20124;-83
2023/10/22 15:00:51;;;;;;;2.30;1.20;;;;;;;;;;5032284;28;20555;-84
2023/10/22 15:03:16;;;;;;;3.00;1.25;;;;;;;;;;5077606;28;20021;-83
2023/10/22 15:05:51;;;;;;;1.75;0.93;;;;;;;;;;5034354;28;20025;-83
2023/10/22 15:08:16;;;;;;;3.58;1.40;;;;;;;;;;5036104;28;20025;-83
2023/10/22 15:10:43;;;;;;;5.35;1.02;;;;;;;;;;5047472;28;20097;-84
2023/10/22 15:13:11;;;;;;;3.00;1.58;;;;;;;;;;5038785;28;20060;-84
2023/10/22 15:15:42;;;;;;;1.70;1.08;;;;;;;;;;5045938;28;20025;-83
2023/10/22 15:18:08;;;;;;;4.40;0.85;;;;;;;;;;5041964;28;20460;-83
2023/10/22 15:20:40;;;;;;;7.32;1.25;;;;;;;;;;5035901;28;20465;-84
2023/10/22 15:23:06;;;;;;;3.47;1.10;;;;;;;;;;5030241;28;20029;-83
2023/10/22 15:25:32;;;;;;;2.53;1.23;;;;;;;;;;5041224;28;20039;-87
2023/10/22 15:27:58;;;;;;;2.97;1.27;;;;;;;;;;5040942;28;20151;-84
2023/10/22 15:30:30;;;;;;;7.45;1.75;;;;;;;;;;5042787;28;20111;-84
2023/10/22 15:32:57;;;;;;;11.13;1.95;;;;;;;;;;5036482;28;20037;-84
2023/10/22 15:35:27;;;;;;;15.20;2.13;;;;;;;;;;5030259;28;20469;-85
